Nefterudovoz-47m — UFFP — position and weather

sailwx.info

Track history (hours):
 
Tides and Currents Weather Stations Pressure Air Temp Water Temp Dewpoint Dewpoint Depression Visibility Wind Speed Wind Dir Waves Ship Positions

Nefterudovoz-47m

Last reported at 2017-Apr-28 22:02 UTC. Time now 2017-May-26 22:45 UTC.
Position N 45°32' E 036°46'.
Warning: this ship's position is 28 days out of date.

Length 119 m; draft 3.3 m.

Type: Cargo ship. MMSI: 273347800.

Date/timePositionNaut miles runAvg speedWind from/ knotsBaromVisibWave heightAir tempDewpointWater temp
2017-Apr-28 22:02N 45°32' E 036°46'0 7.0
2017-Apr-28 22:00N 45°32' E 036°46'3 6.8
2017-Apr-28 21:30N 45°29' E 036°43'4 7.0
2017-Apr-28 20:59N 45°26' E 036°42'3 6.8
2017-Apr-28 20:29N 45°23' E 036°40'3 6.0
2017-Apr-28 20:00N 45°20' E 036°38'3 6.2
2017-Apr-28 19:29N 45°19' E 036°34'3 6.5
2017-Apr-28 18:59N 45°18' E 036°29'3 6.4
2017-Apr-28 18:30N 45°15' E 036°29'1 1.4
2017-Apr-28 18:00N 45°14' E 036°29'0 0.0
2017-Apr-28 17:30N 45°14' E 036°29'1 2.7
2017-Apr-28 16:59N 45°13' E 036°30'0 0.1
2017-Apr-28 16:29N 45°13' E 036°30'0 0.0
2017-Apr-28 15:59N 45°13' E 036°30'0 0.0
2017-Apr-28 15:11N 45°13' E 036°30'0 0.0
2017-Apr-28 14:59N 45°13' E 036°30'0 0.0
2017-Apr-28 13:56N 45°13' E 036°30'0 0.0
2017-Apr-28 13:29N 45°13' E 036°30'0 0.0
2017-Apr-28 12:59N 45°13' E 036°30'0 0.0
2017-Apr-28 12:26N 45°13' E 036°30'0 0.0
2017-Apr-28 11:41N 45°13' E 036°30'0 0.0
2017-Apr-28 11:02N 45°13' E 036°30'0 0.0
2017-Apr-28 10:59N 45°13' E 036°30'0 0.0
2017-Apr-28 10:30N 45°13' E 036°30'0 0.0
2017-Apr-28 09:54N 45°13' E 036°30'1 1.7
2017-Apr-28 09:30N 45°13' E 036°30'3 6.1
2017-Apr-28 09:00N 45°10' E 036°29'4 7.0
2017-Apr-28 08:28N 45°06' E 036°30'3 7.0
2017-Apr-28 08:00N 45°03' E 036°31'  
2017-Apr-23 20:57N 40°59' E 028°60'6 8.0
2017-Apr-23 20:13N 40°53' E 028°56'2 8.6
2017-Apr-23 19:58N 40°52' E 028°55'4 8.2
2017-Apr-23 19:27N 40°48' E 028°51'  
Track history (hours):
 
Tides and Currents Weather Stations Pressure Air Temp Water Temp Dewpoint Dewpoint Depression Visibility Wind Speed Wind Dir Waves Ship Positions

Nefterudovoz-47m

Last reported at 2017-Apr-28 22:02 UTC. Time now 2017-May-26 22:45 UTC.
Position N 45°32' E 036°46'.
Warning: this ship's position is 28 days out of date.

Length 119 m; draft 3.3 m.

Type: Cargo ship. MMSI: 273347800.

Date/timePositionNaut miles runAvg speedWind from/ knotsBaromVisibWave heightAir tempDewpointWater temp
2017-Apr-28 22:02N 45°32' E 036°46'0 7.0
2017-Apr-28 22:00N 45°32' E 036°46'3 6.8
2017-Apr-28 21:30N 45°29' E 036°43'4 7.0
2017-Apr-28 20:59N 45°26' E 036°42'3 6.8
2017-Apr-28 20:29N 45°23' E 036°40'3 6.0
2017-Apr-28 20:00N 45°20' E 036°38'3 6.2
2017-Apr-28 19:29N 45°19' E 036°34'3 6.5
2017-Apr-28 18:59N 45°18' E 036°29'3 6.4
2017-Apr-28 18:30N 45°15' E 036°29'1 1.4
2017-Apr-28 18:00N 45°14' E 036°29'0 0.0
2017-Apr-28 17:30N 45°14' E 036°29'1 2.7
2017-Apr-28 16:59N 45°13' E 036°30'0 0.1
2017-Apr-28 16:29N 45°13' E 036°30'0 0.0
2017-Apr-28 15:59N 45°13' E 036°30'0 0.0
2017-Apr-28 15:11N 45°13' E 036°30'0 0.0
2017-Apr-28 14:59N 45°13' E 036°30'0 0.0
2017-Apr-28 13:56N 45°13' E 036°30'0 0.0
2017-Apr-28 13:29N 45°13' E 036°30'0 0.0
2017-Apr-28 12:59N 45°13' E 036°30'0 0.0
2017-Apr-28 12:26N 45°13' E 036°30'0 0.0
2017-Apr-28 11:41N 45°13' E 036°30'0 0.0
2017-Apr-28 11:02N 45°13' E 036°30'0 0.0
2017-Apr-28 10:59N 45°13' E 036°30'0 0.0
2017-Apr-28 10:30N 45°13' E 036°30'0 0.0
2017-Apr-28 09:54N 45°13' E 036°30'1 1.7
2017-Apr-28 09:30N 45°13' E 036°30'3 6.1
2017-Apr-28 09:00N 45°10' E 036°29'4 7.0
2017-Apr-28 08:28N 45°06' E 036°30'3 7.0
2017-Apr-28 08:00N 45°03' E 036°31'  
2017-Apr-23 20:57N 40°59' E 028°60'6 8.0
2017-Apr-23 20:13N 40°53' E 028°56'2 8.6
2017-Apr-23 19:58N 40°52' E 028°55'4 8.2
2017-Apr-23 19:27N 40°48' E 028°51'  

Dump ship's entire track history